Norfolk, Virginia
Traffic Map
Current Weather Conditions
Norfolk, Virginia
Clear
Clear
36°
Feels Like: 37°
Wind Chill: 36° Ceiling: Unl
Heat Index: 37° Visibility: 10mi
Dew Point: 18° Wind: 8mph
Humidity: 36% Direction: 260° (W)
Pressure: 29.93in Gusts: 21mph
Raw Report DataKORF 021951Z AUTO 26007G18KT 10SM CLR 36/18 A2993 RMK AO2 SLP135 T03560183 TSNO
Traffic Incident Summary
Active as of:
Severity:
Category:
InformationThere was an issue retrieving the traffic information for this location. Please try a different location or try again shortly.
Advertisements
Track Severe Weather on mobile